Time;durP1;ratioP1;P1;durP2;ratioP2;P2;SDS_P1;SDS_P2;PMS_P1;PMS_P2;Temp;Humidity;BMP_temperature;BMP_pressure;BME280_temperature;BME280_humidity;BME280_pressure;Samples;Min_cycle;Max_cycle;Signal;HPM_P1;HPM_P2
2023/02/21 02:16:12;;;;;;;11.02;8.82;;;;;;;6.76;100.00;101611.03;6128055;23;20016;-72
2023/02/21 02:18:56;;;;;;;20.08;9.85;;;;;;;6.91;100.00;101624.63;6127367;23;20024;-73
2023/02/21 02:21:41;;;;;;;11.73;9.68;;;;;;;6.92;100.00;101618.53;6139019;23;20097;-73
2023/02/21 02:24:44;;;;;;;10.85;8.45;;;;;;;6.95;100.00;101611.47;6111301;23;20018;-72
2023/02/21 02:27:20;;;;;;;;;;;;;;;6.93;100.00;101613.25;6136192;23;20053;-73
2023/02/21 02:30:13;;;;;;;19.02;10.00;;;;;;;6.31;100.00;101529.41;6110052;23;19905;-72
2023/02/21 02:32:49;;;;;;;14.20;8.88;;;;;;;6.90;100.00;101628.16;6113234;23;20117;-72
2023/02/21 02:35:31;;;;;;;21.83;9.07;;;;;;;6.73;100.00;101612.84;6114192;23;20033;-73
2023/02/21 02:38:19;;;;;;;14.15;9.48;;;;;;;6.88;100.00;101637.75;6103082;23;20045;-74
2023/02/21 02:41:15;;;;;;;17.13;10.85;;;;;;;6.90;100.00;101628.16;6132379;23;20029;-72
2023/02/21 02:44:09;;;;;;;9.93;8.68;;;;;;;6.90;100.00;101622.94;6101551;23;20050;-73
2023/02/21 02:46:40;;;;;;;12.77;9.75;;;;;;;6.72;100.00;101591.13;6097262;23;20057;-73
2023/02/21 02:49:16;;;;;;;15.60;8.85;;;;;;;6.73;100.00;101600.66;6137657;23;22136;-73
2023/02/21 02:51:43;;;;;;;13.38;8.75;;;;;;;6.91;100.00;101616.81;6129367;23;20580;-73
2023/02/21 02:54:09;;;;;;;18.55;8.77;;;;;;;6.91;100.00;101622.03;6106552;23;20017;-73
2023/02/21 02:56:37;;;;;;;12.05;8.07;;;;;;;6.91;100.00;101609.81;6085254;23;20033;-73
2023/02/21 02:59:09;;;;;;;18.58;9.68;;;;;;;6.17;100.00;101483.69;6137831;23;20020;-73
2023/02/21 03:01:48;;;;;;;14.05;8.60;;;;;;;6.91;100.00;101601.16;6133648;23;20037;-72
2023/02/21 03:04:26;;;;;;;20.85;10.45;;;;;;;6.10;100.00;101476.00;6106281;23;20017;-73
2023/02/21 03:07:16;;;;;;;12.27;10.05;;;;;;;6.90;100.00;101600.31;6127319;23;20028;-73
2023/02/21 03:09:57;;;;;;;12.48;10.05;;;;;;;6.91;100.00;101588.09;6136725;23;20028;-72
2023/02/21 03:12:36;;;;;;;20.38;10.90;;;;;;;5.42;100.00;101349.75;6103343;23;20025;-72
2023/02/21 03:15:29;;;;;;;19.45;10.75;;;;;;;6.93;100.00;101597.59;6131225;23;20575;-73
2023/02/21 03:18:03;;;;;;;12.07;9.05;;;;;;;6.24;100.00;101487.00;6133186;23;20078;-72
2023/02/21 03:20:32;;;;;;;13.90;9.88;;;;;;;6.94;100.00;101591.50;6133345;23;20021;-71
2023/02/21 03:23:01;;;;;;;17.67;11.82;;;;;;;6.62;100.00;101547.88;6120447;23;20058;-72
2023/02/21 03:25:31;;;;;;;13.05;9.30;;;;;;;6.41;100.00;101497.03;6135136;23;20522;-72
2023/02/21 03:27:59;;;;;;;29.90;11.23;;;;;;;6.97;100.00;101593.19;6111345;23;20080;-71
2023/02/21 03:30:28;;;;;;;18.48;10.40;;;;;;;6.43;100.00;101507.44;6116119;23;20009;-73
2023/02/21 03:32:55;;;;;;;17.40;11.90;;;;;;;6.79;100.00;101571.84;6128276;23;20039;-72
2023/02/21 03:35:21;;;;;;;29.92;10.95;;;;;;;6.45;100.00;101511.72;6130448;23;20024;-71
2023/02/21 03:37:53;;;;;;;17.15;10.38;;;;;;;6.49;100.00;101509.91;6130021;23;20096;-73
2023/02/21 03:40:23;;;;;;;15.27;10.50;;;;;;;6.20;100.00;101474.91;6100383;23;20483;-72
2023/02/21 03:42:51;;;;;;;20.42;10.98;;;;;;;6.96;100.00;101607.13;6086738;23;20041;-73
2023/02/21 03:45:18;;;;;;;18.33;10.57;;;;;;;6.09;100.00;101462.09;6105807;23;20025;-73
2023/02/21 03:47:45;;;;;;;24.17;12.60;;;;;;;6.98;100.00;101602.75;6104131;23;20724;-73
2023/02/21 03:50:12;;;;;;;21.80;13.18;;;;;;;6.58;100.00;101538.41;6135186;23;20560;-72
2023/02/21 03:52:38;;;;;;;21.92;13.80;;;;;;;6.74;100.00;101558.03;6104262;23;20033;-73
2023/02/21 03:55:06;;;;;;;19.83;12.48;;;;;;;6.96;100.00;101600.16;6138102;23;20118;-73
2023/02/21 03:57:33;;;;;;;21.33;12.07;;;;;;;6.80;100.00;101564.88;6108004;23;20033;-73
2023/02/21 04:00:00;;;;;;;24.60;11.82;;;;;;;6.99;100.00;101596.63;6109837;23;20013;-72
2023/02/21 04:02:27;;;;;;;20.38;11.10;;;;;;;6.62;100.00;101534.00;6110414;23;20025;-72
2023/02/21 04:04:54;;;;;;;18.08;10.27;;;;;;;6.16;100.00;101465.47;6108905;23;20025;-71
2023/02/21 04:07:21;;;;;;;27.45;12.32;;;;;;;6.97;100.00;101594.03;6111284;23;20918;-71
2023/02/21 04:09:48;;;;;;;18.63;10.05;;;;;;;6.96;100.00;101608.00;6130780;23;20505;-72
2023/02/21 04:12:14;;;;;;;23.55;12.20;;;;;;;4.34;100.00;101181.94;6130851;23;20027;-72
2023/02/21 04:14:41;;;;;;;31.50;11.95;;;;;;;6.94;100.00;101594.13;6134440;23;20028;-71
2023/02/21 04:17:07;;;;;;;15.10;11.60;;;;;;;6.94;100.00;101588.06;6130307;23;20292;-72
2023/02/21 04:19:34;;;;;;;20.60;10.52;;;;;;;6.55;100.00;101533.25;6121648;23;20092;-71
2023/02/21 04:22:01;;;;;;;15.35;9.15;;;;;;;6.90;100.00;101589.88;6130156;23;20017;-71
2023/02/21 04:24:27;;;;;;;16.67;11.07;;;;;;;6.90;100.00;101589.00;6110060;23;20145;-71
2023/02/21 04:26:54;;;;;;;24.35;13.45;;;;;;;6.60;100.00;101531.41;6131912;23;20196;-72
2023/02/21 04:29:20;;;;;;;25.45;11.25;;;;;;;6.34;100.00;101482.44;6127841;23;20020;-72
2023/02/21 04:31:47;;;;;;;20.80;10.80;;;;;;;6.61;100.00;101540.94;6134153;23;20528;-71
2023/02/21 04:34:14;;;;;;;22.88;12.82;;;;;;;6.93;100.00;101584.56;6106183;23;20176;-73
2023/02/21 04:36:40;;;;;;;17.05;11.15;;;;;;;6.39;100.00;101502.31;6109798;23;20029;-71
2023/02/21 04:39:07;;;;;;;30.65;12.23;;;;;;;6.90;100.00;101589.88;6132502;23;20042;-72
2023/02/21 04:41:33;;;;;;;17.60;11.80;;;;;;;6.22;100.00;101478.34;6133419;23;20032;-72
2023/02/21 04:44:00;;;;;;;12.50;10.40;;;;;;;6.39;100.00;101509.25;6127845;23;20045;-73
2023/02/21 04:46:26;;;;;;;31.48;13.63;;;;;;;6.38;100.00;101517.97;6110122;23;20013;-73
2023/02/21 04:48:53;;;;;;;23.08;13.15;;;;;;;6.91;100.00;101588.09;6117767;23;20016;-73
2023/02/21 04:51:22;;;;;;;15.98;10.43;;;;;;;6.92;100.00;101587.22;6087918;23;20036;-72
2023/02/21 04:53:49;;;;;;;18.33;12.27;;;;;;;5.06;100.00;101275.88;6112098;23;20409;-72
2023/02/21 04:56:19;;;;;;;29.10;11.93;;;;;;;6.55;100.00;101530.63;6106265;23;20104;-73
2023/02/21 04:58:47;;;;;;;26.13;11.10;;;;;;;6.23;100.00;101487.88;6114977;23;20098;-73
2023/02/21 05:01:15;;;;;;;20.42;9.75;;;;;;;6.89;100.00;101587.28;6133995;23;20030;-73
2023/02/21 05:03:42;;;;;;;16.45;11.30;;;;;;;6.87;100.00;101589.06;6109210;23;20022;-74
2023/02/21 05:06:09;;;;;;;19.02;10.55;;;;;;;6.60;100.00;101549.66;6105746;23;20801;-73
2023/02/21 05:08:36;;;;;;;16.27;10.65;;;;;;;6.78;100.00;101572.72;6109314;23;20017;-73
2023/02/21 05:11:02;;;;;;;28.13;10.68;;;;;;;6.67;100.00;101576.47;6130498;23;20519;-73
2023/02/21 05:13:29;;;;;;;16.65;11.70;;;;;;;6.93;100.00;101584.56;6109341;23;20104;-73
2023/02/21 05:15:55;;;;;;;16.83;10.10;;;;;;;6.46;100.00;101525.66;6126320;23;20017;-72
2023/02/21 05:18:22;;;;;;;18.70;12.20;;;;;;;5.95;100.00;101438.09;6104923;23;20025;-73
2023/02/21 05:20:49;;;;;;;14.55;9.88;;;;;;;6.13;100.00;101475.94;6127807;23;20019;-73
2023/02/21 05:23:17;;;;;;;27.92;14.85;;;;;;;6.87;100.00;101595.13;6105578;23;20280;-73
2023/02/21 05:25:44;;;;;;;14.30;10.52;;;;;;;6.42;100.00;101526.59;6108704;23;20016;-74
2023/02/21 05:28:10;;;;;;;22.30;12.75;;;;;;;6.21;100.00;101504.44;6131254;23;20505;-72
2023/02/21 05:30:37;;;;;;;28.83;12.32;;;;;;;6.56;100.00;101561.91;6129866;23;20385;-72
2023/02/21 05:33:03;;;;;;;14.40;11.32;;;;;;;6.21;100.00;101507.06;6131362;23;20092;-72
2023/02/21 05:35:30;;;;;;;13.55;11.48;;;;;;;6.83;100.00;101595.25;6115237;23;20021;-74
2023/02/21 05:37:56;;;;;;;33.40;13.65;;;;;;;6.17;100.00;101504.53;6134466;23;20036;-71
2023/02/21 05:40:23;;;;;;;20.83;10.95;;;;;;;6.74;100.00;101598.94;6082284;23;20084;-72
2023/02/21 05:42:49;;;;;;;23.88;11.05;;;;;;;5.17;100.00;101339.84;6077002;23;20040;-73
2023/02/21 05:45:16;;;;;;;14.60;9.52;;;;;;;6.17;100.00;101519.28;6079302;23;20027;-73
2023/02/21 05:47:42;;;;;;;18.98;9.45;;;;;;;5.60;100.00;101427.47;6133752;23;20122;-72
2023/02/21 05:50:08;;;;;;;12.13;9.25;;;;;;;6.14;100.00;101514.16;6104387;23;20029;-74
2023/02/21 05:52:35;;;;;;;9.20;8.02;;;;;;;6.59;100.00;101592.28;6099675;23;20387;-73
2023/02/21 05:55:02;;;;;;;15.52;9.32;;;;;;;6.50;100.00;101595.09;6132878;23;20518;-73
2023/02/21 05:57:28;;;;;;;12.52;7.63;;;;;;;6.37;100.00;101605.78;6131403;23;20392;-72
2023/02/21 05:59:55;;;;;;;11.75;9.38;;;;;;;6.43;100.00;101609.13;6105904;23;20054;-72
2023/02/21 06:02:21;;;;;;;14.13;9.13;;;;;;;5.94;100.00;101512.75;6124776;23;20093;-72
2023/02/21 06:04:48;;;;;;;15.43;9.77;;;;;;;6.34;100.00;101598.00;6126320;23;20081;-72
2023/02/21 06:07:14;;;;;;;23.70;10.50;;;;;;;6.22;100.00;101605.22;6107263;23;20072;-72
2023/02/21 06:09:41;;;;;;;9.63;7.53;;;;;;;5.70;100.00;101497.63;6126127;23;20099;-72
2023/02/21 06:12:07;;;;;;;20.63;9.27;;;;;;;5.92;100.00;101524.09;6134944;23;20208;-73
2023/02/21 06:14:34;;;;;;;11.93;8.52;;;;;;;5.88;100.00;101509.44;6105998;23;20437;-73
2023/02/21 06:17:02;;;;;;;9.00;8.13;;;;;;;5.85;100.00;101499.91;6131790;23;20033;-72
2023/02/21 06:19:29;;;;;;;12.88;9.25;;;;;;;6.16;100.00;101547.09;6134415;23;20080;-73
2023/02/21 06:21:58;;;;;;;14.25;9.50;;;;;;;5.50;100.00;101444.16;6132021;23;20017;-73
2023/02/21 06:24:25;;;;;;;10.43;9.40;;;;;;;6.28;100.00;101577.28;6130112;23;20024;-73
2023/02/21 06:26:51;;;;;;;13.90;9.23;;;;;;;5.58;100.00;101465.69;6133974;23;20557;-73
2023/02/21 06:29:17;;;;;;;16.30;9.80;;;;;;;5.97;100.00;101532.72;6127825;23;20049;-74
2023/02/21 06:31:44;;;;;;;14.40;10.15;;;;;;;6.11;100.00;101551.53;6130920;23;20468;-73
2023/02/21 06:34:10;;;;;;;12.63;9.90;;;;;;;5.92;100.00;101524.09;6098674;23;20014;-72
2023/02/21 06:36:38;;;;;;;19.90;9.98;;;;;;;6.37;100.00;101590.13;6103166;23;20607;-72
2023/02/21 06:39:06;;;;;;;20.95;10.10;;;;;;;5.99;100.00;101529.22;6128081;23;20013;-72
2023/02/21 06:41:33;;;;;;;11.27;8.50;;;;;;;6.30;100.00;101595.50;6138154;23;20031;-73
2023/02/21 06:43:59;;;;;;;21.25;11.07;;;;;;;6.23;100.00;101575.63;6119202;23;20037;-71
2023/02/21 06:46:28;;;;;;;16.33;10.32;;;;;;;6.32;100.00;101584.13;6133904;23;20069;-72
2023/02/21 06:48:55;;;;;;;11.93;8.95;;;;;;;6.35;100.00;101593.63;6105006;23;20331;-71
2023/02/21 06:51:28;;;;;;;11.23;9.93;;;;;;;6.22;100.00;101560.91;6112304;23;20397;-71
2023/02/21 06:53:55;;;;;;;9.95;7.78;;;;;;;5.51;100.00;101468.44;6124005;23;20029;-73
2023/02/21 06:56:22;;;;;;;16.88;9.85;;;;;;;5.52;100.00;101455.41;6135443;23;20518;-72
2023/02/21 06:58:48;;;;;;;12.43;9.40;;;;;;;5.78;100.00;101495.72;6106094;23;20122;-72
2023/02/21 07:01:15;;;;;;;14.07;9.60;;;;;;;6.35;100.00;101578.00;6138849;23;20483;-72
2023/02/21 07:03:43;;;;;;;15.30;8.38;;;;;;;6.38;100.00;101591.84;6112417;23;20436;-72
2023/02/21 07:06:09;;;;;;;18.13;10.20;;;;;;;5.87;100.00;101521.56;6130451;23;20044;-73
2023/02/21 07:08:36;;;;;;;10.35;8.70;;;;;;;6.15;100.00;101566.25;6107136;23;20595;-71
2023/02/21 07:11:04;;;;;;;10.02;9.00;;;;;;;5.76;100.00;101518.34;6103906;23;20302;-72
2023/02/21 07:13:31;;;;;;;10.40;8.15;;;;;;;6.15;100.00;101565.38;6131661;23;20353;-71
2023/02/21 07:15:58;;;;;;;8.35;7.60;;;;;;;5.68;100.00;101489.81;6136203;23;20614;-70
2023/02/21 07:18:25;;;;;;;9.10;8.23;;;;;;;4.88;100.00;101345.56;6106501;23;20068;-72
2023/02/21 07:20:51;;;;;;;10.07;8.32;;;;;;;6.45;100.00;101594.31;6122046;23;20041;-72
2023/02/21 07:23:18;;;;;;;10.45;7.75;;;;;;;6.34;100.00;101587.56;6101024;23;20040;-72
2023/02/21 07:25:44;;;;;;;16.42;8.93;;;;;;;6.48;100.00;101602.09;6123742;23;20402;-70
2023/02/21 07:28:11;;;;;;;16.15;10.07;;;;;;;6.18;100.00;101536.66;6123576;23;20108;-73
2023/02/21 07:30:37;;;;;;;13.40;10.18;;;;;;;6.21;100.00;101540.94;6115662;23;20021;-71
2023/02/21 07:33:04;;;;;;;12.93;9.38;;;;;;;5.46;100.00;101418.22;6125129;23;20049;-71
2023/02/21 07:35:30;;;;;;;16.60;10.27;;;;;;;5.77;100.00;101468.81;6088030;23;20031;-72
2023/02/21 07:37:57;;;;;;;17.30;10.27;;;;;;;5.14;100.00;101381.50;6100011;23;20041;-71
2023/02/21 07:40:23;;;;;;;11.63;7.57;;;;;;;5.97;100.00;101509.25;6097624;23;20725;-72
2023/02/21 07:42:50;;;;;;;9.50;8.40;;;;;;;5.83;100.00;101477.38;6122490;23;20087;-71
2023/02/21 07:45:16;;;;;;;25.13;22.00;;;;;;;6.42;100.00;101571.78;5962867;23;20227;-71
2023/02/21 07:47:44;;;;;;;15.02;9.27;;;;;;;6.45;100.00;101597.78;6075246;23;20031;-72
2023/02/21 07:50:15;;;;;;;11.48;8.57;;;;;;;5.65;100.00;101455.16;6134098;23;20333;-71
2023/02/21 07:52:41;;;;;;;11.02;9.13;;;;;;;6.56;100.00;101601.03;6086560;23;20104;-72
2023/02/21 07:55:07;;;;;;;12.50;8.32;;;;;;;6.24;100.00;101541.72;6131971;23;20026;-71
2023/02/21 07:57:34;;;;;;;14.18;8.90;;;;;;;5.76;100.00;101485.31;6135899;23;20042;-72
2023/02/21 08:00:00;;;;;;;10.27;7.95;;;;;;;6.26;100.00;101550.38;6109682;23;20047;-72
2023/02/21 08:02:26;;;;;;;23.60;10.07;;;;;;;6.33;100.00;101579.78;6125388;23;20032;-72
2023/02/21 08:04:53;;;;;;;17.92;9.93;;;;;;;6.46;100.00;101604.72;6137014;23;20033;-71
2023/02/21 08:07:19;;;;;;;8.60;7.57;;;;;;;5.42;100.00;101414.81;6129499;23;20049;-70
2023/02/21 08:09:46;;;;;;;14.75;8.13;;;;;;;6.61;100.00;101611.34;6084784;23;20051;-71
2023/02/21 08:12:12;;;;;;;11.57;8.98;;;;;;;6.20;100.00;101537.47;6135866;23;20359;-70
2023/02/21 08:14:39;;;;;;;15.05;9.23;;;;;;;6.48;100.00;101602.09;6111713;23;20013;-70
2023/02/21 08:17:05;;;;;;;19.00;9.57;;;;;;;5.68;100.00;101491.59;6131045;23;20039;-71
2023/02/21 08:19:31;;;;;;;15.70;9.43;;;;;;;6.33;100.00;101609.31;6134801;23;20021;-71
2023/02/21 08:21:58;;;;;;;11.27;8.43;;;;;;;5.94;100.00;101551.84;6136533;23;20455;-72
2023/02/21 08:24:24;;;;;;;16.65;10.07;;;;;;;5.19;100.00;101405.72;6107859;23;20040;-70
2023/02/21 08:26:51;;;;;;;16.10;8.73;;;;;;;5.88;100.00;101541.53;6134991;23;20086;-71
2023/02/21 08:29:17;;;;;;;14.48;9.80;;;;;;;5.67;100.00;101487.25;6094015;23;20076;-72
2023/02/21 08:31:46;;;;;;;15.63;9.60;;;;;;;5.54;100.00;101469.25;6105519;23;20155;-71
2023/02/21 08:34:12;;;;;;;16.17;8.38;;;;;;;5.66;100.00;101477.72;6104025;23;20025;-71
2023/02/21 08:36:41;;;;;;;15.88;9.82;;;;;;;6.12;100.00;101570.66;6128190;23;20025;-71
2023/02/21 08:39:08;;;;;;;17.98;8.98;;;;;;;6.36;100.00;101593.63;6113100;23;20017;-71
2023/02/21 08:41:43;;;;;;;20.52;8.80;;;;;;;6.50;100.00;101615.94;6108388;23;20036;-70
2023/02/21 08:44:12;;;;;;;10.23;8.57;;;;;;;6.51;100.00;101613.28;6102010;23;20025;-71
2023/02/21 08:46:39;;;;;;;16.63;8.52;;;;;;;5.84;100.00;101537.28;6089363;23;20101;-72
2023/02/21 08:49:06;;;;;;;10.65;7.32;;;;;;;6.26;100.00;101578.19;6109753;23;20032;-71
2023/02/21 08:51:33;;;;;;;19.40;10.00;;;;;;;6.06;100.00;101557.75;6135051;23;20032;-72
2023/02/21 08:54:00;;;;;;;14.30;8.75;;;;;;;6.48;100.00;101602.94;6128113;23;20451;-71
2023/02/21 08:56:27;;;;;;;10.77;7.32;;;;;;;6.24;100.00;101587.81;6130219;23;20114;-71
2023/02/21 08:58:54;;;;;;;8.98;8.18;;;;;;;6.30;100.00;101577.25;6131751;23;20014;-71
2023/02/21 09:01:21;;;;;;;10.50;8.23;;;;;;;6.41;100.00;101610.91;6087565;23;20067;-72
2023/02/21 09:03:48;;;;;;;13.55;9.30;;;;;;;5.03;100.00;101374.78;6137952;23;20095;-71
2023/02/21 09:06:16;;;;;;;9.57;8.30;;;;;;;5.98;100.00;101547.47;6113788;23;20025;-71
2023/02/21 09:08:42;;;;;;;12.95;9.95;;;;;;;6.10;100.00;101546.38;6110821;23;20037;-72
2023/02/21 09:11:09;;;;;;;12.25;9.38;;;;;;;5.97;100.00;101511.88;6129240;23;20088;-71
2023/02/21 09:13:35;;;;;;;15.18;8.23;;;;;;;5.76;100.00;101482.72;6101311;23;20096;-71
2023/02/21 09:16:02;;;;;;;17.13;11.13;;;;;;;5.19;100.00;101384.00;6106368;23;20037;-70
2023/02/21 09:18:31;;;;;;;21.08;7.85;;;;;;;6.58;100.00;101598.41;6138534;23;20051;-72
2023/02/21 09:20:58;;;;;;;10.77;8.90;;;;;;;6.45;100.00;101556.06;6126003;23;20542;-72
2023/02/21 09:23:26;;;;;;;9.32;7.95;;;;;;;6.83;100.00;101588.28;6100363;23;20029;-71
2023/02/21 09:25:53;;;;;;;18.15;8.82;;;;;;;6.58;100.00;101552.31;6130968;23;20032;-71
2023/02/21 09:28:20;;;;;;;15.48;9.23;;;;;;;6.36;100.00;101494.53;6124428;23;20017;-70
2023/02/21 09:30:48;;;;;;;15.63;9.07;;;;;;;6.49;100.00;101499.50;6111980;23;20086;-70
2023/02/21 09:33:15;;;;;;;15.13;9.82;;;;;;;6.84;100.00;101558.69;6138424;23;20046;-71
2023/02/21 09:35:41;;;;;;;12.70;8.18;;;;;;;6.55;100.00;101531.50;6127464;23;20266;-71
2023/02/21 09:38:08;;;;;;;19.00;9.13;;;;;;;6.62;100.00;101513.13;6132274;23;20025;-71
2023/02/21 09:40:37;;;;;;;16.02;8.98;;;;;;;7.12;100.00;101569.34;6102036;23;20103;-72
2023/02/21 09:43:10;;;;;;;18.80;9.57;;;;;;;6.79;100.00;101504.03;6106609;23;20031;-70
2023/02/21 09:45:37;;;;;;;19.58;12.10;;;;;;;7.20;100.00;101563.94;6137625;23;20136;-71
2023/02/21 09:48:08;;;;;;;11.20;8.90;;;;;;;7.15;100.00;101568.41;6111810;23;20013;-72
2023/02/21 09:50:41;;;;;;;24.52;10.98;;;;;;;7.08;100.00;101595.56;6138509;23;20029;-71
2023/02/21 09:53:13;;;;;;;11.07;8.95;;;;;;;6.70;100.00;101545.97;6083591;23;20464;-73
2023/02/21 09:55:40;;;;;;;20.23;10.00;;;;;;;6.57;100.00;101487.13;6110053;23;20406;-73
2023/02/21 09:58:12;;;;;;;17.35;8.98;;;;;;;7.03;100.00;101542.59;6106244;23;20186;-72
2023/02/21 10:00:40;;;;;;;17.45;9.52;;;;;;;7.17;100.00;101553.56;6128430;23;20467;-71
2023/02/21 10:03:25;;;;;;;15.80;10.05;;;;;;;7.19;100.00;101560.44;6101857;23;20064;-70
2023/02/21 10:06:03;;;;;;;21.95;11.93;;;;;;;7.19;100.00;101557.84;6077313;23;20032;-72
2023/02/21 10:08:35;;;;;;;15.85;9.30;;;;;;;7.24;100.00;101559.50;6134504;23;20090;-71
2023/02/21 10:11:13;;;;;;;22.75;10.98;;;;;;;6.74;100.00;101479.78;6105035;23;20100;-71
2023/02/21 10:13:51;;;;;;;22.60;10.60;;;;;;;6.93;100.00;101511.50;6082562;23;20021;-71
2023/02/21 10:16:28;;;;;;;24.08;11.82;;;;;;;6.99;100.00;101532.22;6126717;23;20056;-71
2023/02/21 10:19:01;;;;;;;26.27;10.75;;;;;;;7.05;100.00;101552.09;6125717;23;20017;-73
2023/02/21 10:21:29;;;;;;;;;;;;;;;7.19;100.00;101544.78;6130909;23;20377;-72
2023/02/21 10:24:03;;;;;;;13.52;8.52;;;;;;;6.68;100.00;101458.22;6106230;23;19909;-71
2023/02/21 10:26:36;;;;;;;13.30;9.05;;;;;;;6.56;100.00;101434.13;6124300;23;20021;-70
2023/02/21 10:29:16;;;;;;;16.33;9.93;;;;;;;6.77;100.00;101444.94;6130443;23;20020;-73
2023/02/21 10:31:44;;;;;;;13.55;8.18;;;;;;;7.31;100.00;101529.72;6136953;23;20041;-71
2023/02/21 10:34:27;;;;;;;13.43;10.80;;;;;;;7.48;100.00;101535.38;6131965;23;20064;-72
2023/02/21 10:36:55;;;;;;;8.85;6.90;;;;;;;7.72;100.00;101554.78;6137103;23;20040;-71
2023/02/21 10:39:38;;;;;;;17.55;10.23;;;;;;;7.82;100.00;101547.56;6128255;23;20094;-71
2023/02/21 10:42:04;;;;;;;16.38;11.13;;;;;;;7.67;100.00;101516.63;6135975;23;20475;-71
2023/02/21 10:44:34;;;;;;;11.65;8.05;;;;;;;7.45;100.00;101493.66;6114042;23;20484;-72
2023/02/21 10:47:12;;;;;;;16.77;9.93;;;;;;;8.04;100.00;101552.19;6136689;23;20043;-72
2023/02/21 10:49:47;;;;;;;14.73;8.23;;;;;;;8.12;100.00;101548.47;6103317;23;20111;-71
2023/02/21 10:52:17;;;;;;;9.25;7.82;;;;;;;8.16;100.00;101555.31;6111357;23;20392;-74
2023/02/21 10:55:09;;;;;;;13.45;8.75;;;;;;;8.28;100.00;101558.47;6111347;23;20337;-72
2023/02/21 10:57:57;;;;;;;11.85;8.45;;;;;;;8.31;100.00;101553.16;6127468;23;20231;-72
2023/02/21 11:00:25;;;;;;;21.65;9.38;;;;;;;8.17;100.00;101553.56;6128937;23;20036;-72
2023/02/21 11:03:01;;;;;;;30.08;10.40;;;;;;;8.07;100.00;101559.94;6102930;23;20092;-71
2023/02/21 11:05:28;;;;;;;21.65;10.07;;;;;;;8.24;100.00;101547.25;6105330;23;20083;-70
2023/02/21 11:07:59;;;;;;;14.05;9.15;;;;;;;8.51;100.00;101542.16;6132972;23;20024;-74
2023/02/21 11:10:40;;;;;;;13.77;8.60;;;;;;;7.76;100.00;101372.66;6103103;23;20091;-73
2023/02/21 11:13:14;;;;;;;14.75;9.02;;;;;;;8.79;100.00;101540.38;6134603;23;20514;-73
2023/02/21 11:15:43;;;;;;;13.60;8.77;;;;;;;8.75;100.00;101532.69;6128449;23;20610;-73
2023/02/21 11:18:14;;;;;;;11.02;8.05;;;;;;;8.97;100.00;101531.09;6130627;23;20941;-73
2023/02/21 11:20:41;;;;;;;12.85;6.95;;;;;;;8.63;100.00;101462.44;6103987;23;20185;-72
2023/02/21 11:23:18;;;;;;;11.10;7.65;;;;;;;8.65;100.00;101421.38;6101947;23;20735;-72
2023/02/21 11:25:45;;;;;;;10.02;7.75;;;;;;;9.16;100.00;101515.66;6103654;23;20026;-72
2023/02/21 11:28:11;;;;;;;9.65;7.55;;;;;;;8.80;100.00;101509.88;6133314;23;20080;-72
2023/02/21 11:30:47;;;;;;;10.38;7.15;;;;;;;9.12;100.00;101510.56;6131401;23;20146;-71
2023/02/21 11:33:19;;;;;;;9.90;7.63;;;;;;;9.10;100.00;101502.78;6132211;23;20021;-72
2023/02/21 11:35:48;;;;;;;18.05;7.75;;;;;;;8.05;100.00;101369.16;6100527;23;20083;-73
2023/02/21 11:38:52;;;;;;;10.43;7.82;;;;;;;8.68;100.00;101484.94;6110451;23;20112;-72
2023/02/21 11:41:19;;;;;;;9.55;8.55;;;;;;;8.50;100.00;101480.25;6137797;23;20068;-74
2023/02/21 11:43:50;;;;;;;9.32;7.85;;;;;;;8.55;100.00;101478.38;6117657;23;20223;-72
2023/02/21 11:46:19;;;;;;;12.43;8.32;;;;;;;8.53;100.00;101478.41;6135009;23;20021;-73
2023/02/21 11:48:55;;;;;;;11.18;7.65;;;;;;;8.51;100.00;101479.34;6115807;23;20024;-72
2023/02/21 11:51:49;;;;;;;19.27;7.45;;;;;;;8.52;100.00;101479.31;6118140;23;20424;-73
2023/02/21 11:54:19;;;;;;;9.38;7.35;;;;;;;8.72;100.00;101472.59;6088115;23;20099;-70
2023/02/21 11:56:57;;;;;;;11.38;8.45;;;;;;;8.85;100.00;101470.44;6133689;23;20029;-71
2023/02/21 12:00:07;;;;;;;10.75;8.38;;;;;;;8.85;100.00;101466.06;6103368;23;20087;-72
2023/02/21 12:03:03;;;;;;;7.88;6.55;;;;;;;8.94;100.00;101459.66;6023315;23;20049;-71
2023/02/21 12:05:44;;;;;;;9.60;8.07;;;;;;;8.76;100.00;101450.66;6071858;23;20109;-74
2023/02/21 12:08:41;;;;;;;12.55;8.38;;;;;;;8.81;100.00;101448.75;6104815;23;20013;-72
2023/02/21 12:11:39;;;;;;;16.83;8.43;;;;;;;8.50;100.00;101443.63;6135533;23;20037;-70
2023/02/21 12:14:05;;;;;;;13.13;8.27;;;;;;;8.54;100.00;101437.44;6135969;23;20181;-71
2023/02/21 12:16:49;;;;;;;9.70;7.43;;;;;;;8.79;100.00;101440.94;6144340;23;20664;-71
2023/02/21 12:19:43;;;;;;;13.32;8.73;;;;;;;8.78;100.00;101431.38;6134301;23;20388;-70
2023/02/21 12:22:30;;;;;;;8.88;7.90;;;;;;;8.93;100.00;101435.25;6112500;23;20112;-71
2023/02/21 12:25:17;;;;;;;13.85;9.38;;;;;;;8.72;100.00;101401.94;6137402;23;20021;-70
2023/02/21 12:27:56;;;;;;;10.40;7.78;;;;;;;8.83;100.00;101412.91;6139643;23;20374;-71
2023/02/21 12:30:35;;;;;;;16.77;8.95;;;;;;;8.68;100.00;101390.72;6116847;23;20299;-70
2023/02/21 12:33:40;;;;;;;10.05;8.93;;;;;;;9.02;100.00;101401.81;6143848;23;20092;-71
2023/02/21 12:36:44;;;;;;;11.93;8.73;;;;;;;8.98;100.00;101401.94;5993021;23;20050;-72
2023/02/21 12:39:38;;;;;;;17.52;8.35;;;;;;;8.68;100.00;101402.94;6133821;23;20037;-71
2023/02/21 12:42:13;;;;;;;10.23;9.18;;;;;;;7.87;100.00;101347.06;6107988;23;20092;-71
2023/02/21 12:44:46;;;;;;;26.60;9.02;;;;;;;8.07;100.00;101388.25;6109788;23;20810;-70
2023/02/21 12:47:19;;;;;;;14.15;7.95;;;;;;;8.03;100.00;101394.47;6108980;23;20108;-69
2023/02/21 12:49:56;;;;;;;17.08;10.18;;;;;;;6.61;100.00;101207.09;6132605;23;20468;-71
2023/02/21 12:52:29;;;;;;;11.13;9.23;;;;;;;7.78;100.00;101403.06;6132105;23;20100;-70
2023/02/21 12:55:20;;;;;;;11.40;8.52;;;;;;;8.13;100.00;101413.38;6134827;23;20510;-71
2023/02/21 12:57:55;;;;;;;19.98;9.15;;;;;;;7.63;100.00;101327.75;6127724;23;20028;-70
2023/02/21 13:01:02;;;;;;;15.55;8.80;;;;;;;8.30;100.00;101391.91;6133122;23;20032;-70
2023/02/21 13:03:48;;;;;;;10.52;9.23;;;;;;;8.12;100.00;101326.25;6107497;23;20480;-71
2023/02/21 13:06:18;;;;;;;16.27;7.03;;;;;;;8.88;100.00;101408.38;6108573;23;20049;-72
2023/02/21 13:08:57;;;;;;;13.75;10.02;;;;;;;8.88;100.00;101397.03;6116520;23;20033;-71
2023/02/21 13:11:55;;;;;;;17.10;9.10;;;;;;;8.61;100.00;101391.81;6113013;23;20539;-70
2023/02/21 13:14:27;;;;;;;14.30;9.40;;;;;;;8.58;100.00;101394.56;6132326;23;20101;-70
2023/02/21 13:16:54;;;;;;;;;;;;;;;8.78;100.00;101392.13;6138034;23;20036;-71
2023/02/21 13:19:21;;;;;;;21.05;9.43;;;;;;;8.83;100.00;101393.72;6134618;23;19917;-71
2023/02/21 13:21:54;;;;;;;17.13;8.55;;;;;;;8.64;100.00;101383.00;6081327;23;20065;-70
2023/02/21 13:24:35;;;;;;;15.80;8.90;;;;;;;8.45;100.00;101382.78;6128341;23;20067;-70
2023/02/21 13:27:45;;;;;;;12.77;7.90;;;;;;;6.99;100.00;101106.84;6106948;23;20056;-70
2023/02/21 13:30:27;;;;;;;14.52;8.23;;;;;;;8.50;100.00;101381.72;6113293;23;20026;-70
2023/02/21 13:32:57;;;;;;;14.25;8.73;;;;;;;8.07;100.00;101306.38;6137740;23;20033;-70
2023/02/21 13:35:36;;;;;;;15.15;8.70;;;;;;;8.33;100.00;101365.69;6117815;23;20271;-71
2023/02/21 13:38:09;;;;;;;16.17;10.38;;;;;;;8.28;100.00;101334.44;6134679;23;20398;-71
2023/02/21 13:40:53;;;;;;;19.00;10.15;;;;;;;8.48;100.00;101367.84;6130237;23;20104;-71
2023/02/21 13:43:32;;;;;;;14.68;10.07;;;;;;;7.90;100.00;101317.38;6134598;23;20188;-70
2023/02/21 13:46:29;;;;;;;17.67;8.93;;;;;;;8.05;100.00;101357.84;6116534;23;20487;-70
2023/02/21 13:49:33;;;;;;;8.90;7.63;;;;;;;8.14;100.00;101363.66;6129910;23;20274;-70
2023/02/21 13:52:18;;;;;;;15.63;9.20;;;;;;;8.10;100.00;101367.28;6105300;23;20091;-70
2023/02/21 13:55:13;;;;;;;19.02;9.35;;;;;;;8.17;100.00;101362.69;6132549;23;20009;-71